Time;durP1;ratioP1;P1;durP2;ratioP2;P2;SDS_P1;SDS_P2;PMS_P1;PMS_P2;Temp;Humidity;BMP_temperature;BMP_pressure;BME280_temperature;BME280_humidity;BME280_pressure;Samples;Min_cycle;Max_cycle;Signal;HPM_P1;HPM_P2
2022/04/23 00:01:43;;;;;;;15.68;9.82;;;10.80;99.90;;;;;;4988941;28;20046;-83
2022/04/23 00:04:13;;;;;;;13.63;9.77;;;10.80;99.90;;;;;;4992609;28;20057;-85
2022/04/23 00:06:39;;;;;;;15.10;10.50;;;10.80;99.90;;;;;;5005795;28;20112;-84
2022/04/23 00:09:05;;;;;;;12.98;9.70;;;10.70;99.90;;;;;;4986235;28;20042;-85
2022/04/23 00:11:32;;;;;;;14.65;11.00;;;10.70;99.90;;;;;;4974588;28;20211;-82
2022/04/23 00:13:59;;;;;;;15.05;9.68;;;10.70;99.90;;;;;;4994483;28;20050;-83
2022/04/23 00:16:25;;;;;;;16.05;10.13;;;10.70;99.90;;;;;;4993979;28;20050;-85
2022/04/23 00:18:51;;;;;;;14.27;10.07;;;10.60;99.90;;;;;;4992567;28;20046;-83
2022/04/23 00:21:20;;;;;;;16.30;10.68;;;10.60;99.90;;;;;;5001749;28;20050;-84
2022/04/23 00:23:48;;;;;;;12.95;10.07;;;10.60;99.90;;;;;;5015395;28;20048;-83
2022/04/23 00:26:14;;;;;;;16.35;10.63;;;10.50;99.90;;;;;;5023021;28;20057;-83
2022/04/23 00:28:40;;;;;;;14.50;10.43;;;10.50;99.90;;;;;;4985026;28;20065;-83
2022/04/23 00:31:06;;;;;;;13.85;10.13;;;10.50;99.90;;;;;;4993136;28;20399;-83
2022/04/23 00:33:38;;;;;;;13.93;10.15;;;10.40;99.90;;;;;;4994274;28;20053;-83
2022/04/23 00:36:05;;;;;;;13.48;10.50;;;10.40;99.90;;;;;;5023935;28;20077;-83
2022/04/23 00:38:33;;;;;;;14.48;10.30;;;10.40;99.90;;;;;;4974077;28;20050;-84
2022/04/23 00:40:59;;;;;;;13.57;9.38;;;10.40;99.90;;;;;;5010777;28;20057;-83
2022/04/23 00:43:30;;;;;;;12.10;8.95;;;10.40;99.90;;;;;;5019105;28;20060;-84
2022/04/23 00:45:57;;;;;;;15.20;9.30;;;10.40;99.90;;;;;;4991827;28;20259;-84
2022/04/23 00:48:26;;;;;;;13.45;9.82;;;10.40;99.90;;;;;;4986901;28;20124;-83
2022/04/23 00:50:53;;;;;;;12.45;9.15;;;10.30;99.90;;;;;;4994460;28;20107;-82
2022/04/23 00:53:19;;;;;;;15.52;9.40;;;10.20;99.90;;;;;;5010594;28;20045;-83
2022/04/23 00:55:46;;;;;;;13.25;8.90;;;10.20;99.90;;;;;;5010266;28;20050;-84
2022/04/23 00:58:16;;;;;;;12.15;8.70;;;10.20;99.90;;;;;;4985256;28;20085;-85
2022/04/23 01:00:44;;;;;;;15.43;9.30;;;10.20;99.90;;;;;;5009579;28;20479;-84
2022/04/23 01:03:12;;;;;;;13.88;8.95;;;10.10;99.90;;;;;;4979553;28;20081;-84
2022/04/23 01:05:47;;;;;;;17.27;8.98;;;10.10;99.90;;;;;;4945613;28;20050;-84
2022/04/23 01:08:19;;;;;;;12.38;9.40;;;10.10;99.90;;;;;;4993633;28;20442;-84
2022/04/23 01:10:45;;;;;;;13.65;9.02;;;10.10;99.90;;;;;;5002741;28;20766;-85
2022/04/23 01:13:14;;;;;;;10.90;8.75;;;10.00;99.90;;;;;;4998055;28;20081;-84
2022/04/23 01:16:05;;;;;;;12.00;9.27;;;10.00;99.90;;;;;;4993390;28;20495;-84
2022/04/23 01:18:31;;;;;;;12.80;8.65;;;9.90;99.90;;;;;;4990726;28;20100;-83
2022/04/23 01:20:59;;;;;;;14.18;9.85;;;9.90;99.90;;;;;;4996416;28;20088;-83
2022/04/23 01:23:24;;;;;;;14.50;9.05;;;9.90;99.90;;;;;;5006675;28;20682;-84
2022/04/23 01:25:52;;;;;;;11.95;8.98;;;9.70;99.90;;;;;;4993447;28;20057;-84
2022/04/23 01:28:21;;;;;;;14.32;9.00;;;9.70;99.90;;;;;;4993550;28;20042;-84
2022/04/23 01:30:51;;;;;;;12.13;10.10;;;9.70;99.90;;;;;;4977951;28;20038;-84
2022/04/23 01:33:17;;;;;;;16.15;10.02;;;9.60;99.90;;;;;;4976206;28;20061;-85
2022/04/23 01:35:44;;;;;;;15.13;9.63;;;9.60;99.90;;;;;;4994024;28;20446;-83
2022/04/23 01:38:10;;;;;;;12.63;9.82;;;9.60;99.90;;;;;;4976914;28;20046;-83
2022/04/23 01:40:36;;;;;;;14.80;9.45;;;9.60;99.90;;;;;;4973098;28;20124;-83
2022/04/23 01:43:02;;;;;;;13.68;10.13;;;9.70;99.90;;;;;;4981795;28;20080;-83
2022/04/23 01:45:27;;;;;;;13.73;9.35;;;9.60;99.90;;;;;;4973970;28;20419;-83
2022/04/23 01:47:53;;;;;;;12.65;9.75;;;9.60;99.90;;;;;;4983943;28;20053;-83
2022/04/23 01:50:19;;;;;;;16.02;10.98;;;9.70;99.90;;;;;;4992758;28;20128;-84
2022/04/23 01:52:45;;;;;;;13.60;9.90;;;9.60;99.90;;;;;;4992869;28;20046;-84
2022/04/23 01:55:10;;;;;;;16.27;10.40;;;9.60;99.90;;;;;;4976822;28;20361;-84
2022/04/23 01:57:36;;;;;;;15.70;11.57;;;9.50;99.90;;;;;;4957297;28;20084;-83
2022/04/23 02:00:08;;;;;;;15.00;10.88;;;9.60;99.90;;;;;;4948356;28;20041;-84
2022/04/23 02:02:36;;;;;;;13.07;10.38;;;9.60;99.90;;;;;;5006836;28;20490;-83
2022/04/23 02:05:03;;;;;;;16.25;10.57;;;9.60;99.90;;;;;;4985293;28;20042;-84
2022/04/23 02:07:29;;;;;;;17.45;11.10;;;9.50;99.90;;;;;;5006854;28;20065;-83
2022/04/23 02:09:55;;;;;;;17.75;10.82;;;9.40;99.90;;;;;;4971068;28;20048;-84
2022/04/23 02:12:20;;;;;;;16.85;11.77;;;9.40;99.90;;;;;;4993023;28;20129;-83
2022/04/23 02:14:48;;;;;;;14.77;10.45;;;9.30;99.90;;;;;;4966489;28;20512;-84
2022/04/23 02:17:14;;;;;;;18.25;12.32;;;9.30;99.90;;;;;;4982175;28;20565;-84
2022/04/23 02:19:40;;;;;;;17.77;11.55;;;9.20;99.90;;;;;;4992384;28;20073;-84
2022/04/23 02:22:06;;;;;;;16.10;12.15;;;9.20;99.90;;;;;;4975025;28;20074;-83
2022/04/23 02:24:32;;;;;;;15.20;11.05;;;9.20;99.90;;;;;;4986688;28;20038;-84
2022/04/23 02:26:57;;;;;;;15.88;11.20;;;9.10;99.90;;;;;;4992929;28;20053;-83
2022/04/23 02:29:23;;;;;;;17.80;12.60;;;9.10;99.90;;;;;;4991192;28;20384;-84
2022/04/23 02:31:49;;;;;;;17.38;11.25;;;9.10;99.90;;;;;;4971547;28;20056;-85
2022/04/23 02:34:15;;;;;;;16.70;11.95;;;9.10;99.90;;;;;;4995730;28;20115;-84
2022/04/23 02:36:40;;;;;;;16.58;11.55;;;9.10;99.90;;;;;;4966703;28;20058;-84
2022/04/23 02:39:06;;;;;;;16.23;11.75;;;9.00;99.90;;;;;;4983048;28;20546;-83
2022/04/23 02:41:32;;;;;;;20.17;12.00;;;9.00;99.90;;;;;;4969315;28;20057;-84
2022/04/23 02:43:57;;;;;;;16.77;11.90;;;9.10;99.90;;;;;;4997145;28;20050;-84
2022/04/23 02:46:24;;;;;;;19.33;12.90;;;9.00;99.90;;;;;;4964291;28;20050;-84
2022/04/23 02:48:50;;;;;;;18.00;11.73;;;8.90;99.90;;;;;;4981876;28;20384;-84
2022/04/23 02:51:16;;;;;;;22.38;12.13;;;8.90;99.90;;;;;;5011872;28;20136;-84
2022/04/23 02:53:45;;;;;;;20.27;13.23;;;8.80;99.90;;;;;;5030354;28;20521;-84
2022/04/23 02:56:16;;;;;;;20.77;13.00;;;8.80;99.90;;;;;;5003311;28;20128;-83
2022/04/23 02:58:43;;;;;;;17.95;12.68;;;8.70;99.90;;;;;;5000015;28;20045;-85
2022/04/23 03:01:10;;;;;;;19.08;11.80;;;8.70;99.90;;;;;;4983960;28;20100;-85
2022/04/23 03:03:43;;;;;;;18.52;12.40;;;8.70;99.90;;;;;;4995239;28;21500;-84
2022/04/23 03:06:09;;;;;;;17.13;12.60;;;8.70;99.90;;;;;;4997055;28;20065;-84
2022/04/23 03:08:38;;;;;;;19.98;13.38;;;8.60;99.90;;;;;;5005487;28;20049;-84
2022/04/23 03:11:06;;;;;;;19.98;12.73;;;8.70;99.90;;;;;;5004521;28;20046;-83
2022/04/23 03:13:34;;;;;;;17.88;12.20;;;8.60;99.90;;;;;;4980356;28;20496;-84
2022/04/23 03:16:00;;;;;;;19.98;12.55;;;8.60;99.90;;;;;;5015248;28;20045;-84
2022/04/23 03:18:26;;;;;;;18.83;12.63;;;8.60;99.90;;;;;;4985291;28;20060;-84
2022/04/23 03:20:52;;;;;;;22.05;13.05;;;8.60;99.90;;;;;;4964193;28;20407;-84
2022/04/23 03:23:19;;;;;;;25.75;13.73;;;8.50;99.90;;;;;;4981484;28;20054;-83
2022/04/23 03:25:45;;;;;;;18.38;13.10;;;8.50;99.90;;;;;;4996996;28;20049;-83
2022/04/23 03:28:13;;;;;;;17.73;12.85;;;8.50;99.90;;;;;;4993116;28;20046;-84
2022/04/23 03:30:40;;;;;;;22.75;13.23;;;8.40;99.90;;;;;;4995671;28;20470;-83
2022/04/23 03:33:05;;;;;;;19.90;13.43;;;8.50;99.90;;;;;;4991221;28;20053;-84
2022/04/23 03:35:31;;;;;;;19.73;13.15;;;8.40;99.90;;;;;;5000663;28;20134;-85
2022/04/23 03:37:58;;;;;;;16.35;12.27;;;8.40;99.90;;;;;;5015760;28;20052;-84
2022/04/23 03:40:25;;;;;;;19.05;12.98;;;8.40;99.90;;;;;;4993945;28;20056;-85
2022/04/23 03:42:51;;;;;;;20.98;13.30;;;8.40;99.90;;;;;;4998849;28;20054;-83
2022/04/23 03:45:18;;;;;;;17.33;13.07;;;8.30;99.90;;;;;;5011060;28;20065;-85
2022/04/23 03:47:48;;;;;;;17.70;13.73;;;8.30;99.90;;;;;;4997438;28;20081;-84
2022/04/23 03:50:15;;;;;;;17.88;12.45;;;8.30;99.90;;;;;;4997996;28;20046;-83
2022/04/23 03:52:41;;;;;;;20.25;13.15;;;8.30;99.90;;;;;;4994325;28;20049;-83
2022/04/23 03:55:07;;;;;;;16.77;13.00;;;8.30;99.90;;;;;;4987786;28;20431;-83
2022/04/23 03:57:49;;;;;;;18.45;12.88;;;8.20;99.90;;;;;;4978451;28;20057;-83
2022/04/23 04:00:16;;;;;;;18.25;12.68;;;8.20;99.90;;;;;;4985267;28;20049;-84
2022/04/23 04:02:43;;;;;;;21.80;13.38;;;8.10;99.90;;;;;;5020161;28;20053;-84
2022/04/23 04:05:10;;;;;;;17.42;12.57;;;8.10;99.90;;;;;;4999370;28;20081;-84
2022/04/23 04:07:39;;;;;;;16.85;13.63;;;8.10;99.90;;;;;;4997872;28;20538;-83
2022/04/23 04:10:05;;;;;;;16.35;12.80;;;8.10;99.90;;;;;;4982103;28;20045;-84
2022/04/23 04:12:31;;;;;;;18.60;12.50;;;8.10;99.90;;;;;;4998410;28;20198;-84
2022/04/23 04:14:57;;;;;;;18.33;12.63;;;8.10;99.90;;;;;;4991705;28;20121;-84
2022/04/23 04:17:23;;;;;;;17.20;12.75;;;8.10;99.90;;;;;;5014832;28;20544;-84
2022/04/23 04:19:49;;;;;;;20.42;12.68;;;8.10;99.90;;;;;;4998112;28;20168;-84
2022/04/23 04:22:15;;;;;;;17.63;13.73;;;8.00;99.90;;;;;;4986855;28;20504;-84
2022/04/23 04:24:41;;;;;;;17.38;13.15;;;8.00;99.90;;;;;;5013250;28;20049;-83
2022/04/23 04:27:07;;;;;;;16.23;12.07;;;8.00;99.90;;;;;;4965111;28;20065;-83
2022/04/23 04:29:33;;;;;;;18.98;12.65;;;8.00;99.90;;;;;;4978415;28;20057;-83
2022/04/23 04:31:58;;;;;;;21.60;13.38;;;8.00;99.90;;;;;;4982728;28;20048;-85
2022/04/23 04:34:29;;;;;;;15.48;12.35;;;8.00;99.90;;;;;;4995126;28;20069;-82
2022/04/23 04:37:08;;;;;;;15.10;12.18;;;8.00;99.90;;;;;;4994973;28;20475;-82
2022/04/23 04:39:35;;;;;;;16.83;12.43;;;8.00;99.90;;;;;;4999890;28;20649;-84
2022/04/23 04:42:01;;;;;;;14.98;12.15;;;8.00;99.90;;;;;;4981240;28;20060;-83
2022/04/23 04:44:27;;;;;;;19.23;13.02;;;8.00;99.90;;;;;;4995785;28;20054;-83
2022/04/23 04:46:53;;;;;;;15.70;12.57;;;8.00;99.90;;;;;;4996036;28;20052;-84
2022/04/23 04:49:19;;;;;;;17.25;12.27;;;8.00;99.90;;;;;;4998135;28;20131;-83
2022/04/23 04:51:45;;;;;;;18.50;12.70;;;8.00;99.90;;;;;;5013355;28;20132;-84
2022/04/23 04:54:11;;;;;;;16.45;12.10;;;8.00;99.90;;;;;;4974954;28;20453;-83
2022/04/23 04:56:36;;;;;;;18.33;11.85;;;8.00;99.90;;;;;;5029355;28;20049;-84
2022/04/23 04:59:02;;;;;;;16.48;12.45;;;8.10;99.90;;;;;;4998031;28;20049;-84
2022/04/23 05:01:29;;;;;;;15.20;12.45;;;8.10;99.90;;;;;;4979118;28;20477;-84
2022/04/23 05:03:54;;;;;;;16.20;12.15;;;8.10;99.90;;;;;;4993963;28;20073;-84
2022/04/23 05:06:20;;;;;;;15.80;12.93;;;8.30;99.90;;;;;;4994474;28;20495;-84
2022/04/23 05:08:46;;;;;;;13.50;11.20;;;8.30;99.90;;;;;;4972336;28;20053;-85
2022/04/23 05:11:12;;;;;;;15.57;11.98;;;8.30;99.90;;;;;;4994388;28;20064;-84
2022/04/23 05:13:38;;;;;;;15.93;11.93;;;8.40;99.90;;;;;;4993244;28;20128;-84
2022/04/23 05:16:08;;;;;;;14.93;11.55;;;8.40;99.90;;;;;;4996511;28;20041;-84
2022/04/23 05:18:37;;;;;;;14.63;12.20;;;8.40;99.90;;;;;;4993787;28;20049;-85
2022/04/23 05:21:03;;;;;;;14.88;11.90;;;8.40;99.90;;;;;;4997226;28;20061;-84
2022/04/23 05:23:31;;;;;;;14.65;11.82;;;8.50;99.90;;;;;;5012765;28;20449;-84
2022/04/23 05:25:57;;;;;;;14.18;11.55;;;8.50;99.90;;;;;;5001348;28;20061;-83
2022/04/23 05:28:23;;;;;;;15.20;12.38;;;8.60;99.90;;;;;;4991811;28;20045;-83
2022/04/23 05:30:49;;;;;;;14.20;11.70;;;8.70;99.90;;;;;;4999333;28;20049;-84
2022/04/23 05:33:15;;;;;;;15.55;11.85;;;8.70;99.90;;;;;;5006011;28;20061;-83
2022/04/23 05:35:41;;;;;;;13.63;11.57;;;8.80;99.90;;;;;;5003166;28;20049;-83
2022/04/23 05:38:06;;;;;;;13.68;11.05;;;8.80;99.90;;;;;;4981556;28;20089;-83
2022/04/23 05:40:33;;;;;;;13.75;11.70;;;8.90;99.90;;;;;;4974975;28;20081;-85
2022/04/23 05:42:58;;;;;;;15.27;11.60;;;9.10;99.90;;;;;;4995172;28;20049;-83
2022/04/23 05:45:25;;;;;;;13.25;11.18;;;9.20;99.90;;;;;;4985891;28;20112;-82
2022/04/23 05:47:51;;;;;;;14.85;11.57;;;9.30;99.90;;;;;;5000578;28;20092;-83
2022/04/23 05:50:20;;;;;;;14.95;11.43;;;9.40;99.90;;;;;;4989195;28;20049;-83
2022/04/23 05:52:45;;;;;;;15.40;11.30;;;9.50;99.90;;;;;;5008196;28;20077;-85
2022/04/23 05:55:11;;;;;;;15.95;11.40;;;9.50;99.90;;;;;;5005123;28;20075;-84
2022/04/23 05:57:38;;;;;;;13.60;10.88;;;9.60;99.90;;;;;;5017871;28;20109;-84
2022/04/23 06:00:05;;;;;;;14.07;10.82;;;9.80;99.90;;;;;;4998743;28;20045;-85
2022/04/23 06:02:31;;;;;;;13.15;10.82;;;9.90;99.90;;;;;;5024492;28;20050;-84
2022/04/23 06:04:58;;;;;;;13.38;10.80;;;10.00;99.90;;;;;;4988269;28;20399;-84
2022/04/23 06:07:24;;;;;;;15.48;11.02;;;10.20;99.90;;;;;;4977812;28;20038;-85
2022/04/23 06:09:49;;;;;;;11.70;10.50;;;10.30;99.90;;;;;;5001209;28;20056;-84
2022/04/23 06:12:15;;;;;;;15.80;10.70;;;10.50;99.90;;;;;;4963198;28;20121;-84
2022/04/23 06:14:41;;;;;;;11.63;10.02;;;10.60;99.90;;;;;;5002960;28;20396;-84
2022/04/23 06:17:08;;;;;;;13.15;10.38;;;10.70;99.90;;;;;;4980216;28;20052;-84
2022/04/23 06:19:34;;;;;;;12.85;11.45;;;10.80;99.90;;;;;;4964230;28;20111;-85
2022/04/23 06:22:00;;;;;;;12.27;10.05;;;10.90;99.90;;;;;;4963743;28;20045;-83
2022/04/23 06:24:26;;;;;;;12.10;10.65;;;11.00;99.90;;;;;;4996525;28;20087;-85
2022/04/23 06:26:52;;;;;;;17.42;11.95;;;11.10;99.90;;;;;;4995679;28;20553;-84
2022/04/23 06:29:17;;;;;;;12.23;10.90;;;11.20;99.90;;;;;;4996407;28;20057;-83
2022/04/23 06:31:43;;;;;;;13.32;10.35;;;11.30;99.90;;;;;;5011918;28;20049;-84
2022/04/23 06:34:10;;;;;;;14.27;11.15;;;11.30;99.90;;;;;;4995648;28;20115;-83
2022/04/23 06:36:36;;;;;;;12.07;10.27;;;11.30;99.90;;;;;;4991606;28;20042;-83
2022/04/23 06:39:08;;;;;;;12.32;10.30;;;11.30;99.90;;;;;;5009580;28;20046;-84
2022/04/23 06:41:34;;;;;;;14.70;10.60;;;11.30;99.90;;;;;;4992063;28;20054;-84
2022/04/23 06:44:01;;;;;;;12.18;10.80;;;11.30;99.90;;;;;;4988902;28;20046;-84
2022/04/23 06:46:26;;;;;;;13.30;10.82;;;11.30;99.90;;;;;;5004514;28;20058;-84
2022/04/23 06:48:52;;;;;;;13.23;10.57;;;11.30;99.90;;;;;;4977479;28;20041;-85
2022/04/23 06:51:18;;;;;;;12.52;10.70;;;11.20;99.90;;;;;;5011102;28;20050;-83
2022/04/23 06:53:43;;;;;;;12.38;10.70;;;11.30;99.90;;;;;;4978710;28;20045;-84
2022/04/23 06:56:10;;;;;;;13.30;10.65;;;11.30;99.90;;;;;;4980957;28;20037;-84
2022/04/23 06:58:35;;;;;;;11.85;10.15;;;11.30;99.90;;;;;;4965004;28;20060;-83
2022/04/23 07:01:02;;;;;;;12.48;11.00;;;11.30;99.90;;;;;;4978654;28;20409;-84
2022/04/23 07:03:28;;;;;;;11.95;10.68;;;11.40;99.90;;;;;;5015601;28;20049;-83
2022/04/23 07:05:54;;;;;;;12.80;10.65;;;11.40;99.90;;;;;;4979133;28;20080;-84
2022/04/23 07:08:20;;;;;;;15.93;11.50;;;11.40;99.90;;;;;;4979662;28;20529;-83
2022/04/23 07:10:45;;;;;;;12.52;10.57;;;11.50;99.90;;;;;;4974753;28;20167;-83
2022/04/23 07:13:14;;;;;;;12.77;11.35;;;11.50;99.90;;;;;;4975431;28;20069;-83
2022/04/23 07:15:40;;;;;;;12.57;10.57;;;11.50;99.90;;;;;;4982047;28;20042;-85
2022/04/23 07:18:07;;;;;;;14.50;10.30;;;11.60;99.90;;;;;;5007311;28;20038;-82
2022/04/23 07:20:33;;;;;;;14.13;10.52;;;11.60;99.90;;;;;;5008032;28;20041;-81
2022/04/23 07:25:43;;;;;;;12.63;10.65;;;11.70;99.90;;;;;;5015409;28;20057;-82
2022/04/23 07:28:09;;;;;;;14.35;11.00;;;11.70;99.90;;;;;;4983385;28;20049;-82
2022/04/23 07:30:35;;;;;;;11.63;10.05;;;11.80;99.90;;;;;;4999172;28;20084;-82
2022/04/23 07:33:02;;;;;;;13.15;9.90;;;11.70;99.90;;;;;;4979274;28;20068;-81
2022/04/23 07:38:16;;;;;;;12.35;9.30;;;11.80;99.90;;;;;;5012580;28;20057;-82
2022/04/23 07:40:45;;;;;;;11.73;10.48;;;11.90;99.90;;;;;;5012014;28;20631;-82
2022/04/23 07:43:14;;;;;;;11.43;10.15;;;11.90;99.90;;;;;;4996445;28;20046;-82
2022/04/23 07:45:44;;;;;;;14.27;10.68;;;11.90;99.90;;;;;;5012219;28;20132;-82
2022/04/23 07:48:12;;;;;;;13.40;10.45;;;11.90;99.90;;;;;;5012072;28;20156;-82
2022/04/23 07:50:40;;;;;;;12.18;10.55;;;11.90;99.90;;;;;;4995615;28;20104;-81
2022/04/23 07:53:11;;;;;;;12.68;10.50;;;12.00;99.90;;;;;;5011774;28;20507;-82
2022/04/23 07:55:38;;;;;;;13.77;10.50;;;12.00;99.90;;;;;;5011920;28;20176;-81
2022/04/23 07:58:05;;;;;;;13.88;10.45;;;12.10;99.90;;;;;;5011076;28;20050;-81
2022/04/23 08:00:34;;;;;;;13.18;10.25;;;12.10;99.90;;;;;;5011710;28;20594;-81
2022/04/23 08:03:04;;;;;;;12.93;10.45;;;12.10;99.90;;;;;;4994767;28;20064;-81
2022/04/23 08:05:30;;;;;;;11.80;10.50;;;12.20;99.90;;;;;;5011832;28;20041;-81
2022/04/23 08:07:56;;;;;;;11.95;10.27;;;12.20;99.90;;;;;;5006382;28;20050;-82
2022/04/23 08:10:22;;;;;;;14.13;10.88;;;12.30;99.90;;;;;;4991920;28;20054;-82
2022/04/23 08:12:48;;;;;;;14.02;10.88;;;12.30;99.90;;;;;;4991018;28;20045;-82
2022/04/23 08:15:14;;;;;;;12.60;10.38;;;12.30;99.90;;;;;;4991729;28;20061;-82
2022/04/23 08:17:39;;;;;;;17.45;10.95;;;12.40;99.90;;;;;;4975582;28;20057;-81
2022/04/23 08:20:06;;;;;;;11.70;10.50;;;12.50;99.90;;;;;;4975396;28;20072;-82
2022/04/23 08:22:32;;;;;;;11.68;10.43;;;12.50;99.90;;;;;;4991835;28;20074;-82
2022/04/23 08:24:58;;;;;;;12.07;10.23;;;12.60;99.90;;;;;;4991256;28;20050;-81
2022/04/23 08:27:24;;;;;;;11.50;10.30;;;12.70;99.30;;;;;;4975678;28;20050;-82
2022/04/23 08:32:37;;;;;;;14.32;10.68;;;12.80;96.00;;;;;;4997595;28;20061;-81
2022/04/23 08:35:05;;;;;;;15.73;10.63;;;12.90;96.00;;;;;;4994034;28;20462;-81
2022/04/23 08:37:32;;;;;;;12.93;9.32;;;13.00;96.50;;;;;;4994671;28;20490;-81
2022/04/23 08:39:58;;;;;;;12.32;10.43;;;13.10;96.30;;;;;;5010783;28;20061;-81
2022/04/23 08:42:24;;;;;;;13.50;9.98;;;13.30;95.00;;;;;;4994783;28;20486;-81
2022/04/23 08:44:53;;;;;;;12.43;9.73;;;13.40;93.30;;;;;;5010587;28;20100;-81
2022/04/23 08:47:23;;;;;;;14.50;8.73;;;13.60;91.60;;;;;;4994701;28;20060;-81
2022/04/23 08:49:56;;;;;;;10.48;9.35;;;13.70;87.10;;;;;;5010467;28;20135;-82
2022/04/23 08:52:31;;;;;;;15.00;10.57;;;13.90;83.80;;;;;;5010837;28;20046;-81
2022/04/23 08:55:01;;;;;;;11.38;9.93;;;14.10;82.20;;;;;;5010357;28;20045;-81
2022/04/23 08:57:28;;;;;;;16.10;9.35;;;14.20;82.70;;;;;;5010395;28;20487;-82
2022/04/23 08:59:56;;;;;;;13.82;9.82;;;14.40;79.20;;;;;;4993979;28;20050;-82
2022/04/23 09:02:24;;;;;;;13.20;10.15;;;14.60;77.70;;;;;;4994219;28;20049;-81
2022/04/23 09:04:50;;;;;;;12.18;9.05;;;15.10;74.00;;;;;;5010038;28;20050;-82
2022/04/23 09:07:20;;;;;;;10.18;8.70;;;16.20;69.20;;;;;;5010633;28;20038;-82
2022/04/23 09:09:50;;;;;;;10.50;8.90;;;17.00;61.70;;;;;;5010366;28;20081;-82
2022/04/23 09:12:17;;;;;;;13.57;8.85;;;17.80;59.30;;;;;;4994308;28;20093;-82
2022/04/23 09:14:45;;;;;;;10.68;8.52;;;18.40;58.00;;;;;;4977965;28;20084;-84
2022/04/23 09:25:40;;;;;;;12.75;8.07;;;19.80;51.20;;;;;;5010237;28;20080;-82
2022/04/23 09:28:19;;;;;;;9.95;7.97;;;20.20;48.70;;;;;;4993729;28;20196;-81
2022/04/23 09:30:47;;;;;;;9.52;7.88;;;20.50;45.10;;;;;;5010146;28;20046;-81
2022/04/23 09:33:13;;;;;;;10.75;7.70;;;20.60;46.30;;;;;;5009464;28;20069;-82
2022/04/23 09:35:54;;;;;;;9.20;7.43;;;20.80;45.30;;;;;;4993748;28;20072;-81
2022/04/23 09:38:20;;;;;;;9.60;7.35;;;21.30;44.10;;;;;;4977913;28;20483;-82
2022/04/23 09:40:54;;;;;;;9.88;7.90;;;21.60;44.40;;;;;;4993421;28;20053;-82
2022/04/23 09:43:32;;;;;;;8.85;7.40;;;22.10;43.90;;;;;;5010117;28;20406;-82
2022/04/23 09:46:09;;;;;;;9.13;7.18;;;22.50;40.30;;;;;;4977077;28;20049;-81
2022/04/23 09:48:39;;;;;;;9.35;7.65;;;22.70;40.10;;;;;;4993446;28;20052;-82
2022/04/23 09:51:18;;;;;;;13.52;8.57;;;22.60;40.00;;;;;;4993228;28;20058;-81
2022/04/23 09:53:46;;;;;;;8.05;7.25;;;22.90;40.70;;;;;;4979103;28;20062;-82
2022/04/23 09:56:13;;;;;;;10.80;7.80;;;23.10;39.70;;;;;;4993045;28;20073;-81
2022/04/23 09:58:39;;;;;;;8.32;7.53;;;23.20;38.70;;;;;;4977408;28;20058;-81
2022/04/23 10:01:08;;;;;;;8.88;7.97;;;23.40;38.70;;;;;;4976444;28;20096;-82
2022/04/23 10:03:34;;;;;;;8.68;7.82;;;23.40;38.40;;;;;;5009693;28;20107;-82
2022/04/23 10:06:04;;;;;;;11.15;7.90;;;23.70;38.40;;;;;;4976910;28;20049;-81
2022/04/23 10:08:33;;;;;;;9.75;7.32;;;23.80;37.60;;;;;;4992214;28;20127;-81
2022/04/23 10:11:17;;;;;;;10.32;7.95;;;23.80;36.30;;;;;;4992015;28;20191;-82
2022/04/23 10:13:45;;;;;;;16.80;8.07;;;23.80;34.90;;;;;;4992948;28;20100;-82
2022/04/23 10:16:13;;;;;;;10.68;7.75;;;24.00;36.10;;;;;;4976920;28;20282;-81
2022/04/23 10:18:39;;;;;;;12.73;7.97;;;24.10;35.10;;;;;;5009307;28;20149;-81
2022/04/23 10:21:09;;;;;;;9.55;7.25;;;24.20;35.10;;;;;;5009163;28;20129;-82
2022/04/23 10:23:58;;;;;;;8.90;6.85;;;24.50;35.20;;;;;;4992950;28;20045;-81
2022/04/23 10:26:29;;;;;;;8.80;6.82;;;24.70;34.00;;;;;;4993155;28;20144;-82
2022/04/23 10:28:56;;;;;;;8.93;7.07;;;25.00;34.00;;;;;;5008751;28;20085;-81
2022/04/23 10:31:21;;;;;;;7.72;6.85;;;25.10;32.40;;;;;;4993040;28;20042;-82
2022/04/23 10:33:51;;;;;;;11.52;7.05;;;25.30;32.50;;;;;;4990662;28;20392;-81
2022/04/23 10:36:19;;;;;;;12.70;7.88;;;25.60;31.10;;;;;;5008721;28;20053;-83
2022/04/23 10:38:51;;;;;;;7.78;6.95;;;25.40;31.50;;;;;;4977069;28;20056;-82
2022/04/23 10:41:21;;;;;;;8.70;6.70;;;25.50;31.70;;;;;;4992441;28;20050;-82
2022/04/23 10:44:00;;;;;;;7.40;6.70;;;25.60;31.30;;;;;;4992649;28;20494;-80
2022/04/23 10:46:41;;;;;;;7.32;6.72;;;25.80;29.80;;;;;;5009307;28;20092;-81
2022/04/23 10:49:14;;;;;;;7.88;7.18;;;26.00;30.60;;;;;;4992485;28;20049;-83
2022/04/23 10:51:48;;;;;;;8.63;7.15;;;25.90;30.30;;;;;;4992936;28;20054;-81
2022/04/23 10:54:19;;;;;;;7.68;6.88;;;25.80;30.20;;;;;;5008844;28;20716;-81
2022/04/23 10:56:53;;;;;;;7.88;7.13;;;25.80;30.40;;;;;;5009206;28;20049;-81
2022/04/23 10:59:38;;;;;;;7.40;6.80;;;25.90;29.40;;;;;;5009780;28;20510;-82
2022/04/23 11:02:19;;;;;;;13.13;7.35;;;25.90;29.40;;;;;;4996589;28;20391;-81
2022/04/23 11:13:40;;;;;;;9.95;7.20;;;26.40;30.00;;;;;;4999018;28;20054;-81
2022/04/23 11:16:08;;;;;;;7.43;6.72;;;26.70;29.10;;;;;;4995851;28;20443;-81
2022/04/23 11:18:35;;;;;;;8.25;7.38;;;27.00;29.00;;;;;;5012740;28;20050;-83
2022/04/23 11:21:17;;;;;;;10.05;8.05;;;27.20;29.00;;;;;;5012198;28;20049;-82
2022/04/23 11:23:45;;;;;;;10.32;7.60;;;27.20;28.10;;;;;;4996637;28;20116;-81
2022/04/23 11:26:22;;;;;;;9.27;8.00;;;27.40;28.60;;;;;;4980221;28;20041;-81
2022/04/23 11:28:59;;;;;;;9.38;7.80;;;27.20;27.50;;;;;;4980578;28;20045;-82
2022/04/23 11:31:26;;;;;;;8.18;7.47;;;26.90;27.80;;;;;;5012419;28;20037;-82
2022/04/23 11:33:59;;;;;;;11.77;7.78;;;26.80;28.10;;;;;;4995659;28;20050;-82
2022/04/23 11:36:29;;;;;;;10.18;8.52;;;26.70;27.30;;;;;;4996208;28;20045;-82
2022/04/23 11:38:56;;;;;;;8.70;7.90;;;27.00;28.20;;;;;;4995894;28;20041;-83
2022/04/23 11:41:42;;;;;;;9.35;7.40;;;27.30;28.10;;;;;;4995800;28;20046;-82
2022/04/23 11:44:15;;;;;;;8.68;7.80;;;28.00;28.00;;;;;;4996060;28;20056;-82
2022/04/23 11:46:46;;;;;;;14.23;7.50;;;28.50;27.60;;;;;;4996055;28;20120;-81
2022/04/23 11:49:30;;;;;;;8.68;7.68;;;28.70;27.50;;;;;;4995220;28;20487;-82
2022/04/23 11:52:05;;;;;;;9.10;7.55;;;28.70;27.40;;;;;;4995763;28;20045;-83
2022/04/23 11:54:36;;;;;;;8.07;7.30;;;28.90;27.40;;;;;;5011973;28;20364;-82
2022/04/23 11:57:03;;;;;;;9.80;7.60;;;29.00;26.90;;;;;;5010985;28;20092;-82
2022/04/23 11:59:46;;;;;;;8.38;7.13;;;29.10;26.70;;;;;;5011926;28;20092;-81
2022/04/23 12:02:23;;;;;;;8.50;6.78;;;29.10;25.70;;;;;;4995140;28;20045;-81
2022/04/23 12:04:58;;;;;;;6.70;5.57;;;29.20;25.80;;;;;;5012030;28;20069;-81
2022/04/23 12:07:24;;;;;;;8.77;5.50;;;29.10;25.10;;;;;;5011602;28;20042;-83
2022/04/23 12:09:56;;;;;;;9.32;5.90;;;29.30;24.70;;;;;;4994939;28;20061;-82
2022/04/23 12:12:26;;;;;;;6.22;5.60;;;29.60;24.70;;;;;;4994357;28;20054;-81
2022/04/23 12:14:54;;;;;;;9.23;5.80;;;29.30;24.20;;;;;;4976297;28;20057;-82
2022/04/23 12:17:21;;;;;;;7.35;5.80;;;29.50;24.50;;;;;;4991502;28;20355;-81
2022/04/23 12:19:49;;;;;;;8.63;5.20;;;29.50;24.30;;;;;;4959885;28;20058;-81
2022/04/23 12:22:32;;;;;;;6.78;5.50;;;29.50;24.10;;;;;;4975212;28;20050;-83
2022/04/23 12:25:09;;;;;;;6.88;5.00;;;29.20;23.30;;;;;;4975610;28;20046;-83
2022/04/23 12:27:51;;;;;;;8.23;5.43;;;29.00;23.40;;;;;;4975526;28;20050;-82
2022/04/23 12:40:44;;;;;;;5.32;4.82;;;29.90;24.10;;;;;;4991199;28;20145;-82
2022/04/23 12:41:24;;;;;;;6.57;4.57;;;30.20;22.60;;;;;;4977778;28;20061;-82
2022/04/23 12:43:52;;;;;;;9.60;4.82;;;30.30;22.60;;;;;;4959588;28;20051;-81
2022/04/23 12:46:17;;;;;;;6.45;4.90;;;30.20;22.40;;;;;;4974681;28;20043;-82
2022/04/23 12:48:57;;;;;;;5.60;5.10;;;30.30;22.10;;;;;;4975514;28;20061;-82
2022/04/23 12:51:23;;;;;;;7.97;5.25;;;30.30;21.30;;;;;;4990928;28;20042;-81
2022/04/23 12:53:49;;;;;;;5.50;5.00;;;30.40;22.10;;;;;;4975418;28;20594;-82
2022/04/23 12:56:16;;;;;;;7.05;5.10;;;30.20;21.70;;;;;;4991059;28;20073;-82
2022/04/23 12:58:42;;;;;;;5.32;4.88;;;30.10;21.70;;;;;;4975581;28;20129;-81
2022/04/23 13:01:09;;;;;;;5.38;4.85;;;29.90;21.70;;;;;;4974738;28;20048;-82
2022/04/23 13:03:41;;;;;;;7.97;5.10;;;29.60;21.60;;;;;;4991287;28;20069;-82
2022/04/23 13:09:02;;;;;;;7.97;5.10;;;30.10;22.50;;;;;;4952263;28;20054;-81
2022/04/23 13:11:28;;;;;;;7.15;4.88;;;30.40;22.30;;;;;;4994450;28;20053;-81
2022/04/23 13:13:56;;;;;;;5.53;4.95;;;30.50;22.00;;;;;;4977906;28;20041;-82
2022/04/23 13:16:24;;;;;;;8.15;4.18;;;30.70;21.90;;;;;;4993702;28;20228;-81
2022/04/23 13:18:54;;;;;;;5.45;4.90;;;30.90;21.80;;;;;;5010665;28;20045;-81
2022/04/23 13:21:20;;;;;;;5.03;4.53;;;30.90;21.20;;;;;;5010006;28;20562;-81